createdAt,value
2016-10-03T00:00:50.139Z,1011.32
2016-10-03T00:01:50.161Z,1011.36
2016-10-03T00:02:50.179Z,1011.36
2016-10-03T00:03:50.202Z,1011.43
2016-10-03T00:04:50.225Z,1011.46
2016-10-03T00:06:50.268Z,1011.51
2016-10-03T00:07:50.290Z,1011.53
2016-10-03T00:08:50.309Z,1011.56
2016-10-03T00:09:50.333Z,1011.54
2016-10-03T00:10:50.352Z,1011.53
2016-10-03T00:11:50.374Z,1011.54
2016-10-03T00:12:50.395Z,1011.52
2016-10-03T00:13:50.418Z,1011.56
2016-10-03T00:14:50.441Z,1011.51
2016-10-03T00:15:50.463Z,1011.57
2016-10-03T00:16:50.481Z,1011.55
2016-10-03T00:17:50.502Z,1011.57
2016-10-03T00:18:50.525Z,1011.6
2016-10-03T00:19:50.548Z,1011.61
2016-10-03T00:20:50.569Z,1011.62
2016-10-03T00:22:50.611Z,1011.63
2016-10-03T00:23:50.633Z,1011.62
2016-10-03T00:24:50.653Z,1011.66
2016-10-03T00:25:50.675Z,1011.69
2016-10-03T00:26:50.698Z,1011.68
2016-10-03T00:27:50.718Z,1011.68
2016-10-03T00:28:50.739Z,1011.72
2016-10-03T00:29:50.762Z,1011.67
2016-10-03T00:30:50.788Z,1011.68
2016-10-03T00:31:50.854Z,1011.65
2016-10-03T00:32:50.878Z,1011.62
2016-10-03T00:33:50.850Z,1011.7
2016-10-03T00:34:50.869Z,1011.69
2016-10-03T00:35:50.894Z,1011.69
2016-10-03T00:37:50.935Z,1011.69
2016-10-03T00:38:50.955Z,1011.7
2016-10-03T00:39:50.977Z,1011.69
2016-10-03T00:40:51.001Z,1011.69
2016-10-03T00:41:51.023Z,1011.69
2016-10-03T00:42:51.043Z,1011.65
2016-10-03T00:43:51.065Z,1011.73
2016-10-03T00:44:51.085Z,1011.69
2016-10-03T00:45:51.105Z,1011.68
2016-10-03T00:46:51.127Z,1011.67
2016-10-03T00:47:51.151Z,1011.63
2016-10-03T00:48:51.173Z,1011.65
2016-10-03T00:49:51.192Z,1011.7
2016-10-03T00:50:51.215Z,1011.68
2016-10-03T00:51:51.235Z,1011.71
2016-10-03T00:52:51.256Z,1011.7
2016-10-03T00:53:51.277Z,1011.7
2016-10-03T00:54:51.299Z,1011.71
2016-10-03T00:55:51.320Z,1011.72
2016-10-03T00:56:51.346Z,1011.7
2016-10-03T00:57:51.364Z,1011.77
2016-10-03T00:58:51.386Z,1011.73
2016-10-03T00:59:51.407Z,1011.78
2016-10-03T01:00:51.427Z,1011.76
2016-10-03T01:01:51.451Z,1011.77
2016-10-03T01:02:51.470Z,1011.79
2016-10-03T01:03:51.492Z,1011.85
2016-10-03T01:04:51.515Z,1011.84
2016-10-03T01:05:51.536Z,1011.86
2016-10-03T01:06:51.557Z,1011.92
2016-10-03T01:07:51.577Z,1011.87
2016-10-03T01:09:51.619Z,1011.9
2016-10-03T01:10:51.641Z,1011.95
2016-10-03T01:11:51.668Z,1011.94
2016-10-03T01:12:51.685Z,1011.93
2016-10-03T01:13:51.706Z,1011.97
2016-10-03T01:14:51.728Z,1011.93
2016-10-03T01:15:51.749Z,1011.87
2016-10-03T01:16:51.768Z,1011.95
2016-10-03T01:17:51.793Z,1011.98
2016-10-03T01:18:51.811Z,1011.98
2016-10-03T01:19:51.836Z,1011.99
2016-10-03T01:20:51.855Z,1012
2016-10-03T01:21:51.878Z,1012
2016-10-03T01:22:51.896Z,1012
2016-10-03T01:23:51.971Z,1011.97
2016-10-03T01:25:51.963Z,1012.02
2016-10-03T01:26:51.982Z,1012.01
2016-10-03T01:27:52.002Z,1011.99
2016-10-03T01:28:52.024Z,1012.01
2016-10-03T01:29:52.046Z,1012.04
2016-10-03T01:30:52.066Z,1012.03
2016-10-03T01:31:52.089Z,1012.02
2016-10-03T01:32:52.111Z,1012.01
2016-10-03T01:33:52.130Z,1012.01
2016-10-03T01:34:52.153Z,1012.05
2016-10-03T01:35:52.175Z,1012.04
2016-10-03T01:36:52.194Z,1012.01
2016-10-03T01:37:52.217Z,1012.05
2016-10-03T01:38:52.236Z,1012.04
2016-10-03T01:39:52.261Z,1012.02
2016-10-03T01:41:52.299Z,1012.02
2016-10-03T01:42:52.323Z,1012.02
2016-10-03T01:43:52.342Z,1012
2016-10-03T01:44:52.363Z,1012
2016-10-03T01:45:52.384Z,1012.01
2016-10-03T01:46:52.407Z,1012.01
2016-10-03T01:47:52.429Z,1012.02
2016-10-03T01:48:52.449Z,1012.02
2016-10-03T01:49:52.471Z,1011.99
2016-10-03T01:50:52.492Z,1012.01
2016-10-03T01:51:52.513Z,1012.01
2016-10-03T01:52:52.532Z,1012.04
2016-10-03T01:53:52.554Z,1012.02
2016-10-03T01:54:52.577Z,1012.03
2016-10-03T01:55:52.597Z,1012.01
2016-10-03T01:57:52.640Z,1012.01
2016-10-03T01:58:52.658Z,1011.99
2016-10-03T01:59:52.679Z,1012.05
2016-10-03T02:00:52.700Z,1012.02
2016-10-03T02:01:52.724Z,1012.03
2016-10-03T02:02:52.742Z,1012
2016-10-03T02:03:52.865Z,1012.03
2016-10-03T02:04:52.836Z,1012.03
2016-10-03T02:05:52.805Z,1012.05
2016-10-03T02:06:52.826Z,1012.04
2016-10-03T02:07:52.849Z,1012.04
2016-10-03T02:08:52.869Z,1012.01
2016-10-03T02:09:53.090Z,1012.04
2016-10-03T02:10:52.911Z,1012.06
2016-10-03T02:12:52.955Z,1012.03
2016-10-03T02:13:52.972Z,1012.05
2016-10-03T02:14:52.994Z,1012.08
2016-10-03T02:15:53.017Z,1012.08
2016-10-03T02:16:53.038Z,1012.08
2016-10-03T02:17:53.056Z,1012.09
2016-10-03T02:18:53.079Z,1012.08
2016-10-03T02:19:53.100Z,1012.13
2016-10-03T02:20:53.118Z,1012.08
2016-10-03T02:21:53.140Z,1012.1
2016-10-03T02:22:53.163Z,1012.1
2016-10-03T02:23:53.184Z,1012.12
2016-10-03T02:24:53.202Z,1012.14
2016-10-03T02:25:53.223Z,1012.15
2016-10-03T02:26:53.246Z,1012.16
2016-10-03T02:27:53.267Z,1012.19
2016-10-03T02:28:53.285Z,1012.15
2016-10-03T02:29:53.307Z,1012.18
2016-10-03T02:30:53.577Z,1012.18
2016-10-03T02:31:53.348Z,1012.13
2016-10-03T02:32:53.371Z,1012.17
2016-10-03T02:33:53.392Z,1012.18
2016-10-03T02:34:53.413Z,1012.16
2016-10-03T02:35:53.433Z,1012.16
2016-10-03T02:36:53.454Z,1012.16
2016-10-03T02:37:53.474Z,1012.17
2016-10-03T02:38:53.494Z,1012.17
2016-10-03T02:39:53.516Z,1012.19
2016-10-03T02:40:53.535Z,1012.19
2016-10-03T02:41:53.556Z,1012.21
2016-10-03T02:42:53.575Z,1012.16
2016-10-03T02:44:53.620Z,1012.21
2016-10-03T02:45:53.639Z,1012.24
2016-10-03T02:46:53.658Z,1012.23
2016-10-03T02:47:53.681Z,1012.3
2016-10-03T02:48:53.701Z,1012.26
2016-10-03T02:49:53.723Z,1012.27
2016-10-03T02:50:53.742Z,1012.32
2016-10-03T02:51:53.777Z,1012.28
2016-10-03T02:52:53.785Z,1012.3
2016-10-03T02:53:53.803Z,1012.3
2016-10-03T02:54:53.826Z,1012.32
2016-10-03T02:55:53.845Z,1012.31
2016-10-03T02:56:53.866Z,1012.3
2016-10-03T02:57:53.885Z,1012.33
2016-10-03T02:58:53.957Z,1012.34
2016-10-03T03:00:53.949Z,1012.37
2016-10-03T03:01:53.968Z,1012.4
2016-10-03T03:02:53.989Z,1012.4
2016-10-03T03:03:54.011Z,1012.38
2016-10-03T03:04:54.032Z,1012.42
2016-10-03T03:05:54.053Z,1012.39
2016-10-03T03:06:54.071Z,1012.42
2016-10-03T03:07:54.343Z,1012.36
2016-10-03T03:08:54.114Z,1012.35
2016-10-03T03:09:54.134Z,1012.38
2016-10-03T03:10:54.156Z,1012.4
2016-10-03T03:11:54.177Z,1012.38
2016-10-03T03:12:54.195Z,1012.39
2016-10-03T03:13:54.216Z,1012.42
2016-10-03T03:14:54.237Z,1012.42
2016-10-03T03:16:54.279Z,1012.42
2016-10-03T03:17:54.298Z,1012.47
2016-10-03T03:18:54.321Z,1012.44
2016-10-03T03:19:54.339Z,1012.44
2016-10-03T03:20:54.361Z,1012.45
2016-10-03T03:21:54.381Z,1012.46
2016-10-03T03:22:54.400Z,1012.43
2016-10-03T03:23:54.420Z,1012.46
2016-10-03T03:24:54.441Z,1012.46
2016-10-03T03:25:54.464Z,1012.47
2016-10-03T03:26:54.483Z,1012.46
2016-10-03T03:27:54.502Z,1012.47
2016-10-03T03:28:54.525Z,1012.48
2016-10-03T03:29:54.545Z,1012.5
2016-10-03T03:30:54.566Z,1012.5
2016-10-03T03:32:54.605Z,1012.55
2016-10-03T03:33:54.626Z,1012.48
2016-10-03T03:34:54.646Z,1012.55
2016-10-03T03:35:54.670Z,1012.56
2016-10-03T03:36:54.689Z,1012.51
2016-10-03T03:37:54.709Z,1012.5
2016-10-03T03:38:54.729Z,1012.52
2016-10-03T03:39:54.748Z,1012.49
2016-10-03T03:40:54.777Z,1012.49
2016-10-03T03:41:54.791Z,1012.5
2016-10-03T03:42:54.810Z,1012.49
2016-10-03T03:43:54.832Z,1012.53
2016-10-03T03:44:54.852Z,1012.53
2016-10-03T03:45:54.871Z,1012.52
2016-10-03T03:47:54.912Z,1012.5
2016-10-03T03:48:54.932Z,1012.49
2016-10-03T03:49:54.955Z,1012.54
2016-10-03T03:50:54.973Z,1012.54
2016-10-03T03:51:54.996Z,1012.58
2016-10-03T03:52:55.017Z,1012.55
2016-10-03T03:53:55.037Z,1012.58
2016-10-03T03:54:55.060Z,1012.6
2016-10-03T03:55:55.077Z,1012.64
2016-10-03T03:56:55.098Z,1012.67
2016-10-03T03:57:55.119Z,1012.7
2016-10-03T03:58:55.140Z,1012.72
2016-10-03T03:59:55.157Z,1012.74
2016-10-03T04:00:55.178Z,1012.74
2016-10-03T04:01:55.199Z,1012.74
2016-10-03T04:02:55.222Z,1012.74
2016-10-03T04:03:55.239Z,1012.76
2016-10-03T04:04:55.260Z,1012.73
2016-10-03T04:05:55.283Z,1012.78
2016-10-03T04:06:55.301Z,1012.75
2016-10-03T04:07:55.322Z,1012.77
2016-10-03T04:08:55.344Z,1012.74
2016-10-03T04:09:55.363Z,1012.78
2016-10-03T04:10:55.385Z,1012.72
2016-10-03T04:11:55.405Z,1012.7
2016-10-03T04:12:55.423Z,1012.68
2016-10-03T04:13:55.445Z,1012.69
2016-10-03T04:14:55.466Z,1012.7
2016-10-03T04:15:55.486Z,1012.71
2016-10-03T04:16:55.507Z,1012.75
2016-10-03T04:17:55.528Z,1012.75
2016-10-03T04:19:56.175Z,1012.75
2016-10-03T04:20:55.589Z,1012.76
2016-10-03T04:21:55.606Z,1012.81
2016-10-03T04:22:55.629Z,1012.81
2016-10-03T04:23:55.698Z,1012.83
2016-10-03T04:24:55.670Z,1012.81
2016-10-03T04:25:55.691Z,1012.82
2016-10-03T04:26:55.708Z,1012.85
2016-10-03T04:27:55.729Z,1012.84
2016-10-03T04:28:55.754Z,1012.84
2016-10-03T04:29:55.772Z,1012.83
2016-10-03T04:30:55.839Z,1012.84
2016-10-03T04:31:55.810Z,1012.81
2016-10-03T04:32:55.830Z,1012.86
2016-10-03T04:33:55.850Z,1012.81
2016-10-03T04:35:55.892Z,1012.85
2016-10-03T04:36:55.912Z,1012.85
2016-10-03T04:37:55.934Z,1012.85
2016-10-03T04:38:55.955Z,1012.88
2016-10-03T04:39:56.223Z,1012.87
2016-10-03T04:40:55.993Z,1012.92
2016-10-03T04:41:56.016Z,1012.96
2016-10-03T04:42:56.036Z,1012.95
2016-10-03T04:43:56.054Z,1012.95
2016-10-03T04:44:56.074Z,1012.98
2016-10-03T04:45:56.095Z,1013.01
2016-10-03T04:46:56.115Z,1013.01
2016-10-03T04:47:56.137Z,1013.04
2016-10-03T04:48:56.157Z,1012.97
2016-10-03T04:49:56.176Z,1013.03
2016-10-03T04:51:56.217Z,1013.06
2016-10-03T04:52:56.237Z,1013.09
2016-10-03T04:53:56.257Z,1013.05
2016-10-03T04:54:56.279Z,1013.1
2016-10-03T04:55:56.298Z,1013.11
2016-10-03T04:56:56.320Z,1013.08
2016-10-03T04:57:56.338Z,1013.1
2016-10-03T04:58:56.358Z,1013.12
2016-10-03T04:59:56.380Z,1013.14
2016-10-03T05:00:56.400Z,1013.15
2016-10-03T05:01:56.434Z,1013.14
2016-10-03T05:02:56.438Z,1013.16
2016-10-03T05:03:56.461Z,1013.18
2016-10-03T05:04:56.479Z,1013.2
2016-10-03T05:05:56.501Z,1013.2
2016-10-03T05:07:56.541Z,1013.22
2016-10-03T05:08:56.559Z,1013.26
2016-10-03T05:09:56.580Z,1013.24
2016-10-03T05:10:56.605Z,1013.28
2016-10-03T05:11:56.623Z,1013.27
2016-10-03T05:12:56.640Z,1013.27
2016-10-03T05:13:56.660Z,1013.29
2016-10-03T05:14:56.681Z,1013.3
2016-10-03T05:15:56.700Z,1013.3
2016-10-03T05:16:56.721Z,1013.32
2016-10-03T05:17:56.740Z,1013.33
2016-10-03T05:18:56.763Z,1013.32
2016-10-03T05:19:56.784Z,1013.34
2016-10-03T05:20:56.802Z,1013.34
2016-10-03T05:22:56.842Z,1013.35
2016-10-03T05:23:56.865Z,1013.4
2016-10-03T05:24:56.882Z,1013.39
2016-10-03T05:25:56.905Z,1013.35
2016-10-03T05:26:56.925Z,1013.37
2016-10-03T05:27:56.943Z,1013.39
2016-10-03T05:28:56.965Z,1013.44
2016-10-03T05:29:56.984Z,1013.39
2016-10-03T05:30:57.006Z,1013.42
2016-10-03T05:31:57.024Z,1013.42
2016-10-03T05:32:57.046Z,1013.44
2016-10-03T05:33:57.064Z,1013.45
2016-10-03T05:34:57.086Z,1013.5
2016-10-03T05:35:57.104Z,1013.48
2016-10-03T05:36:57.127Z,1013.5
2016-10-03T05:37:57.147Z,1013.53
2016-10-03T05:38:57.166Z,1013.52
2016-10-03T05:39:57.185Z,1013.55
2016-10-03T05:40:57.207Z,1013.56
2016-10-03T05:41:57.225Z,1013.58
2016-10-03T05:42:57.251Z,1013.56
2016-10-03T05:43:57.266Z,1013.6
2016-10-03T05:44:57.288Z,1013.56
2016-10-03T05:45:57.308Z,1013.62
2016-10-03T05:46:57.325Z,1013.63
2016-10-03T05:47:57.347Z,1013.7
2016-10-03T05:48:57.369Z,1013.7
2016-10-03T05:49:57.387Z,1013.71
2016-10-03T05:50:57.410Z,1013.75
2016-10-03T05:51:57.426Z,1013.76
2016-10-03T05:52:57.449Z,1013.77
2016-10-03T05:54:57.488Z,1013.8
2016-10-03T05:55:57.508Z,1013.77
2016-10-03T05:56:57.530Z,1013.52
2016-10-03T05:57:57.550Z,1013.25
2016-10-03T05:58:57.570Z,1013.12
2016-10-03T05:59:57.590Z,1013.12
2016-10-03T06:00:57.613Z,1013.14
2016-10-03T06:01:57.634Z,1013.2
2016-10-03T06:02:57.657Z,1013.26
2016-10-03T06:03:57.678Z,1013.3
2016-10-03T06:04:57.698Z,1013.33
2016-10-03T06:05:57.722Z,1013.34
2016-10-03T06:06:57.747Z,1013.48
2016-10-03T06:07:57.770Z,1013.57
2016-10-03T06:08:57.792Z,1013.65
2016-10-03T06:10:57.841Z,1013.78
2016-10-03T06:11:57.864Z,1013.79
2016-10-03T06:12:57.889Z,1013.87
2016-10-03T06:13:57.914Z,1014.04
2016-10-03T06:14:57.940Z,1014.05
2016-10-03T06:15:57.964Z,1014.07
2016-10-03T06:16:57.990Z,1014.17
2016-10-03T06:17:58.016Z,1014.23
2016-10-03T06:18:58.043Z,1014.27
2016-10-03T06:19:58.069Z,1014.36
2016-10-03T06:20:58.093Z,1014.45
2016-10-03T06:21:58.122Z,1014.44
2016-10-03T06:22:58.145Z,1014.46
2016-10-03T06:23:58.174Z,1014.51
2016-10-03T06:24:58.201Z,1014.53
2016-10-03T06:26:58.253Z,1014.61
2016-10-03T06:27:58.279Z,1014.63
2016-10-03T06:28:58.309Z,1014.68
2016-10-03T06:29:58.335Z,1014.66
2016-10-03T06:30:58.364Z,1014.67
2016-10-03T06:31:58.392Z,1014.73
2016-10-03T06:32:58.420Z,1014.76
2016-10-03T06:33:58.445Z,1014.8
2016-10-03T06:34:58.475Z,1014.87
2016-10-03T06:35:58.501Z,1014.88
2016-10-03T06:36:58.529Z,1014.9
2016-10-03T06:37:58.560Z,1014.93
2016-10-03T06:38:58.587Z,1014.96
2016-10-03T06:39:58.618Z,1014.99
2016-10-03T06:40:58.645Z,1015.03
2016-10-03T06:42:58.704Z,1015.1
2016-10-03T06:43:58.738Z,1015.14
2016-10-03T06:44:58.761Z,1015.13
2016-10-03T06:45:58.792Z,1015.2
2016-10-03T06:46:58.822Z,1015.21
2016-10-03T06:47:58.852Z,1015.22
2016-10-03T06:48:58.879Z,1015.24
2016-10-03T06:49:58.908Z,1015.24
2016-10-03T06:50:58.940Z,1015.24
2016-10-03T06:51:58.967Z,1015.25
2016-10-03T06:52:58.999Z,1015.28
2016-10-03T06:53:59.027Z,1015.27
2016-10-03T06:54:59.056Z,1015.32
2016-10-03T06:55:59.089Z,1015.3
2016-10-03T06:57:59.150Z,1015.32
2016-10-03T06:58:59.177Z,1015.32
2016-10-03T06:59:59.210Z,1015.36
2016-10-03T07:00:59.239Z,1015.38
2016-10-03T07:01:59.268Z,1015.33
2016-10-03T07:02:59.298Z,1015.31
2016-10-03T07:03:59.579Z,1015.33
2016-10-03T07:04:59.360Z,1015.27
2016-10-03T07:05:59.389Z,1015.29
2016-10-03T07:06:59.420Z,1015.23
2016-10-03T07:07:59.450Z,1015.26
2016-10-03T07:08:59.481Z,1015.3
2016-10-03T07:09:59.513Z,1015.32
2016-10-03T07:10:59.543Z,1015.32
2016-10-03T07:11:59.574Z,1015.34
2016-10-03T07:12:59.604Z,1015.41
2016-10-03T07:13:59.634Z,1015.48
2016-10-03T07:14:59.662Z,1015.51
2016-10-03T07:15:59.696Z,1015.51
2016-10-03T07:16:59.725Z,1015.51
2016-10-03T07:17:59.756Z,1015.52
2016-10-03T07:18:59.785Z,1015.5
2016-10-03T07:19:59.817Z,1015.48
2016-10-03T07:20:59.844Z,1015.3
2016-10-03T07:21:59.877Z,1015.19
2016-10-03T07:22:59.908Z,1015.14
2016-10-03T07:23:59.937Z,1015.11
2016-10-03T07:24:59.966Z,1015.14
2016-10-03T07:25:59.995Z,1015.12
2016-10-03T07:27:00.026Z,1015.14
2016-10-03T07:28:00.056Z,1015.14
2016-10-03T07:30:00.117Z,1015.12
2016-10-03T07:31:00.147Z,1015.08
2016-10-03T07:32:00.178Z,1015.05
2016-10-03T07:33:00.208Z,1015.06
2016-10-03T07:34:00.239Z,1015.08
2016-10-03T07:35:00.266Z,1015.08
2016-10-03T07:36:00.296Z,1015.09
2016-10-03T07:37:00.328Z,1015.1
2016-10-03T07:38:00.356Z,1015.13
2016-10-03T07:39:00.387Z,1015.1
2016-10-03T07:40:00.417Z,1015.12
2016-10-03T07:41:00.445Z,1015.11
2016-10-03T07:42:00.475Z,1015.16
2016-10-03T07:43:00.506Z,1015.15
2016-10-03T07:44:00.535Z,1015.21
2016-10-03T07:46:00.592Z,1015.23
2016-10-03T07:47:00.623Z,1015.26
2016-10-03T07:48:00.654Z,1015.24
2016-10-03T07:49:00.682Z,1015.27
2016-10-03T07:50:00.711Z,1015.28
2016-10-03T07:51:00.739Z,1015.34
2016-10-03T07:52:00.769Z,1015.34
2016-10-03T07:53:00.798Z,1015.36
2016-10-03T07:54:00.827Z,1015.36
2016-10-03T07:55:00.857Z,1015.4
2016-10-03T07:56:00.888Z,1015.39
2016-10-03T07:57:00.915Z,1015.42
2016-10-03T07:58:00.943Z,1015.42
2016-10-03T07:59:00.975Z,1015.4
2016-10-03T08:00:01.004Z,1015.44
2016-10-03T08:02:01.059Z,1015.49
2016-10-03T08:03:01.088Z,1015.47
2016-10-03T08:04:01.117Z,1015.5
2016-10-03T08:05:01.146Z,1015.53
2016-10-03T08:06:01.175Z,1015.58
2016-10-03T08:07:01.203Z,1015.56
2016-10-03T08:08:01.236Z,1015.59
2016-10-03T08:09:01.263Z,1015.61
2016-10-03T08:10:01.289Z,1015.6
2016-10-03T08:11:01.321Z,1015.61
2016-10-03T08:12:01.349Z,1015.62
2016-10-03T08:13:01.375Z,1015.59
2016-10-03T08:14:01.406Z,1015.59
2016-10-03T08:15:01.434Z,1015.62
2016-10-03T08:16:01.462Z,1015.58
2016-10-03T08:18:01.519Z,1015.63
2016-10-03T08:19:01.548Z,1015.62
2016-10-03T08:20:01.574Z,1015.61
2016-10-03T08:21:01.604Z,1015.64
2016-10-03T08:22:01.634Z,1015.65
2016-10-03T08:23:01.662Z,1015.66
2016-10-03T08:24:01.690Z,1015.65
2016-10-03T08:25:01.717Z,1015.63
2016-10-03T08:26:01.748Z,1015.71
2016-10-03T08:27:01.774Z,1015.66
2016-10-03T08:28:01.803Z,1015.69
2016-10-03T08:29:01.830Z,1015.73
2016-10-03T08:30:01.862Z,1015.73
2016-10-03T08:31:01.887Z,1015.75
2016-10-03T08:33:01.945Z,1015.76
2016-10-03T08:34:01.974Z,1015.74
2016-10-03T08:35:02.004Z,1015.77
2016-10-03T08:36:02.031Z,1015.75
2016-10-03T08:37:02.060Z,1015.78
2016-10-03T08:38:02.086Z,1015.8
2016-10-03T08:39:02.114Z,1015.79
2016-10-03T08:40:02.144Z,1015.8
2016-10-03T08:41:02.170Z,1015.85
2016-10-03T08:42:02.201Z,1015.84
2016-10-03T08:43:02.230Z,1015.85
2016-10-03T08:44:02.257Z,1015.89
2016-10-03T08:45:02.284Z,1015.95
2016-10-03T08:46:02.312Z,1015.92
2016-10-03T08:47:02.339Z,1015.91
2016-10-03T08:48:02.370Z,1015.91
2016-10-03T08:49:02.395Z,1015.89
2016-10-03T08:50:02.423Z,1015.88
2016-10-03T08:51:02.451Z,1015.88
2016-10-03T08:52:02.481Z,1015.9
2016-10-03T08:53:02.507Z,1015.87
2016-10-03T08:54:02.535Z,1015.89
2016-10-03T08:55:02.563Z,1015.91
2016-10-03T08:56:02.590Z,1015.94
2016-10-03T08:57:02.621Z,1015.91
2016-10-03T08:58:02.647Z,1015.92
2016-10-03T08:59:02.675Z,1015.92
2016-10-03T09:00:02.702Z,1015.97
2016-10-03T09:01:02.735Z,1015.95
2016-10-03T09:02:02.760Z,1015.96
2016-10-03T09:03:02.786Z,1015.95
2016-10-03T09:05:02.842Z,1015.99
2016-10-03T09:06:02.872Z,1016.01
2016-10-03T09:07:02.899Z,1015.98
2016-10-03T09:08:02.926Z,1015.99
2016-10-03T09:09:02.953Z,1015.98
2016-10-03T09:10:02.982Z,1016
2016-10-03T09:11:03.012Z,1016
2016-10-03T09:12:03.038Z,1016
2016-10-03T09:13:03.069Z,1016.04
2016-10-03T09:14:03.295Z,1016.01
2016-10-03T09:15:03.125Z,1016
2016-10-03T09:16:03.153Z,1016.03
2016-10-03T09:17:03.180Z,1016.07
2016-10-03T09:18:03.206Z,1016.05
2016-10-03T09:19:03.237Z,1016.1
2016-10-03T09:21:03.294Z,1016.12
2016-10-03T09:22:03.321Z,1016.11
2016-10-03T09:23:03.350Z,1016.09
2016-10-03T09:24:03.376Z,1016.12
2016-10-03T09:25:03.403Z,1016.1
2016-10-03T09:26:03.434Z,1016.1
2016-10-03T09:27:03.462Z,1016.09
2016-10-03T09:28:03.489Z,1016.09
2016-10-03T09:29:03.519Z,1016.11
2016-10-03T09:30:03.546Z,1016.1
2016-10-03T09:31:03.574Z,1016.12
2016-10-03T09:32:03.602Z,1016.12
2016-10-03T09:33:03.628Z,1016.13
2016-10-03T09:34:03.656Z,1016.08
2016-10-03T09:35:03.687Z,1016.14
2016-10-03T09:37:03.742Z,1016.1
2016-10-03T09:38:03.770Z,1016.12
2016-10-03T09:39:03.797Z,1016.1
2016-10-03T09:40:03.824Z,1016.1
2016-10-03T09:41:03.854Z,1016.12
2016-10-03T09:42:03.883Z,1016.12
2016-10-03T09:43:03.911Z,1016.08
2016-10-03T09:44:03.937Z,1016.06
2016-10-03T09:45:03.965Z,1016.09
2016-10-03T09:46:03.993Z,1016.13
2016-10-03T09:47:04.021Z,1016.21
2016-10-03T09:48:04.051Z,1016.15
2016-10-03T09:49:04.079Z,1016.18
2016-10-03T09:50:04.105Z,1016.15
2016-10-03T09:51:04.134Z,1016.12
2016-10-03T09:53:04.189Z,1016.15
2016-10-03T09:54:04.217Z,1016.11
2016-10-03T09:55:04.246Z,1016.11
2016-10-03T09:56:04.272Z,1016.13
2016-10-03T09:57:04.301Z,1016.15
2016-10-03T09:58:04.330Z,1016.18
2016-10-03T09:59:04.356Z,1016.16
2016-10-03T10:00:04.386Z,1016.14
2016-10-03T10:01:04.414Z,1016.2
2016-10-03T10:02:04.440Z,1016.2
2016-10-03T10:03:04.468Z,1016.19
2016-10-03T10:04:04.503Z,1016.22
2016-10-03T10:05:04.524Z,1016.21
2016-10-03T10:06:04.551Z,1016.21
2016-10-03T10:08:04.609Z,1016.25
2016-10-03T10:09:04.637Z,1016.24
2016-10-03T10:10:04.663Z,1016.17
2016-10-03T10:11:04.693Z,1016.23
2016-10-03T10:12:04.718Z,1016.25
2016-10-03T10:13:04.744Z,1016.21
2016-10-03T10:14:04.774Z,1016.24
2016-10-03T10:15:04.800Z,1016.26
2016-10-03T10:16:04.828Z,1016.28
2016-10-03T10:17:04.854Z,1016.28
2016-10-03T10:18:04.882Z,1016.3
2016-10-03T10:19:04.911Z,1016.29
2016-10-03T10:20:04.935Z,1016.33
2016-10-03T10:21:04.963Z,1016.29
2016-10-03T10:22:04.992Z,1016.26
2016-10-03T10:23:05.017Z,1016.28
2016-10-03T10:24:05.046Z,1016.26
2016-10-03T10:25:05.071Z,1016.27
2016-10-03T10:26:05.098Z,1016.28
2016-10-03T10:27:05.125Z,1016.29
2016-10-03T10:28:05.153Z,1016.28
2016-10-03T10:29:05.179Z,1016.29
2016-10-03T10:30:05.206Z,1016.31
2016-10-03T10:31:05.229Z,1016.33
2016-10-03T10:32:05.257Z,1016.31
2016-10-03T10:33:05.301Z,1016.34
2016-10-03T10:34:05.310Z,1016.33
2016-10-03T10:35:05.342Z,1016.34
2016-10-03T10:36:05.363Z,1016.38
2016-10-03T10:37:05.390Z,1016.41
2016-10-03T10:38:05.665Z,1016.32
2016-10-03T10:40:05.467Z,1016.39
2016-10-03T10:41:05.493Z,1016.42
2016-10-03T10:42:05.516Z,1016.43
2016-10-03T10:43:05.545Z,1016.41
2016-10-03T10:44:05.571Z,1016.41
2016-10-03T10:45:05.597Z,1016.42
2016-10-03T10:46:05.620Z,1016.42
2016-10-03T10:47:05.647Z,1016.47
2016-10-03T10:48:05.672Z,1016.45
2016-10-03T10:49:05.697Z,1016.46
2016-10-03T10:50:05.725Z,1016.45
2016-10-03T10:51:06.002Z,1016.48
2016-10-03T10:52:05.775Z,1016.44
2016-10-03T10:53:05.802Z,1016.44
2016-10-03T10:54:05.828Z,1016.45
2016-10-03T10:56:05.878Z,1016.46
2016-10-03T10:57:05.904Z,1016.48
2016-10-03T10:58:05.929Z,1016.5
2016-10-03T10:59:05.956Z,1016.5
2016-10-03T11:00:05.982Z,1016.55
2016-10-03T11:01:06.007Z,1016.49
2016-10-03T11:02:06.033Z,1016.55
2016-10-03T11:03:06.057Z,1016.58
2016-10-03T11:04:06.082Z,1016.61
2016-10-03T11:05:06.108Z,1016.58
2016-10-03T11:06:06.135Z,1016.61
2016-10-03T11:07:06.160Z,1016.62
2016-10-03T11:08:06.184Z,1016.6
2016-10-03T11:09:06.212Z,1016.62
2016-10-03T11:10:06.237Z,1016.63
2016-10-03T11:12:06.285Z,1016.62
2016-10-03T11:13:06.314Z,1016.66
2016-10-03T11:14:06.340Z,1016.63
2016-10-03T11:15:06.361Z,1016.61
2016-10-03T11:16:06.390Z,1016.61
2016-10-03T11:17:06.414Z,1016.66
2016-10-03T11:18:06.439Z,1016.64
2016-10-03T11:19:06.466Z,1016.65
2016-10-03T11:20:06.490Z,1016.63
2016-10-03T11:21:06.517Z,1016.68
2016-10-03T11:22:06.540Z,1016.69
2016-10-03T11:23:06.565Z,1016.69
2016-10-03T11:24:06.598Z,1016.72
2016-10-03T11:25:06.617Z,1016.71
2016-10-03T11:26:06.641Z,1016.75
2016-10-03T11:28:06.693Z,1016.79
2016-10-03T11:29:06.717Z,1016.8
2016-10-03T11:30:06.745Z,1016.83
2016-10-03T11:31:06.769Z,1016.83
2016-10-03T11:32:06.794Z,1016.83
2016-10-03T11:33:06.820Z,1016.83
2016-10-03T11:34:06.846Z,1016.81
2016-10-03T11:35:06.872Z,1016.83
2016-10-03T11:36:06.895Z,1016.85
2016-10-03T11:37:06.921Z,1016.81
2016-10-03T11:38:06.945Z,1016.85
2016-10-03T11:39:06.971Z,1016.83
2016-10-03T11:40:06.998Z,1016.88
2016-10-03T11:41:07.022Z,1016.88
2016-10-03T11:43:07.075Z,1016.86
2016-10-03T11:44:07.098Z,1016.92
2016-10-03T11:45:07.126Z,1016.91
2016-10-03T11:46:07.149Z,1016.99
2016-10-03T11:47:07.179Z,1016.9
2016-10-03T11:48:07.202Z,1016.92
2016-10-03T11:49:07.227Z,1016.86
2016-10-03T11:50:07.253Z,1016.91
2016-10-03T11:51:07.278Z,1016.86
2016-10-03T11:52:07.301Z,1016.92
2016-10-03T11:53:07.328Z,1016.93
2016-10-03T11:54:07.352Z,1016.9
2016-10-03T11:55:07.376Z,1016.94
2016-10-03T11:56:07.404Z,1016.95
2016-10-03T11:57:07.430Z,1016.93
2016-10-03T11:58:07.455Z,1017.01
2016-10-03T11:59:07.480Z,1016.98
2016-10-03T12:00:07.506Z,1016.95
2016-10-03T12:01:07.537Z,1017.04
2016-10-03T12:02:07.555Z,1017
2016-10-03T12:03:07.580Z,1017.03
2016-10-03T12:04:07.605Z,1017
2016-10-03T12:05:07.632Z,1016.99
2016-10-03T12:06:07.655Z,1017.01
2016-10-03T12:07:07.681Z,1017.03
2016-10-03T12:08:07.706Z,1017.01
2016-10-03T12:09:07.731Z,1016.98
2016-10-03T12:10:07.764Z,1017.01
2016-10-03T12:11:07.983Z,1016.98
2016-10-03T12:12:07.808Z,1016.98
2016-10-03T12:13:07.835Z,1017.02
2016-10-03T12:15:07.885Z,1016.96
2016-10-03T12:16:07.909Z,1017.02
2016-10-03T12:17:07.935Z,1017.04
2016-10-03T12:18:07.961Z,1017.02
2016-10-03T12:19:07.987Z,1017.03
2016-10-03T12:20:08.014Z,1017
2016-10-03T12:21:08.039Z,1017.02
2016-10-03T12:22:08.065Z,1016.98
2016-10-03T12:23:08.088Z,1017.07
2016-10-03T12:24:08.119Z,1017.04
2016-10-03T12:25:08.139Z,1017.06
2016-10-03T12:26:08.416Z,1017.13
2016-10-03T12:27:08.194Z,1017.17
2016-10-03T12:28:09.269Z,1017.18
2016-10-03T12:29:08.243Z,1017.09
2016-10-03T12:31:08.296Z,1017.1
2016-10-03T12:32:08.319Z,1017.07
2016-10-03T12:33:08.347Z,1017.08
2016-10-03T12:34:08.370Z,1017.1
2016-10-03T12:35:08.397Z,1017.06
2016-10-03T12:36:08.420Z,1017.07
2016-10-03T12:37:08.449Z,1017.05
2016-10-03T12:38:08.472Z,1017.09
2016-10-03T12:39:08.498Z,1017.06
2016-10-03T12:40:08.525Z,1017.07
2016-10-03T12:41:08.548Z,1017.06
2016-10-03T12:42:08.575Z,1017.06
2016-10-03T12:43:08.600Z,1017.08
2016-10-03T12:44:08.625Z,1017.12
2016-10-03T12:45:08.904Z,1017.09
2016-10-03T12:47:08.702Z,1017.22
2016-10-03T12:48:08.731Z,1017.2
2016-10-03T12:49:08.753Z,1017.19
2016-10-03T12:50:08.781Z,1017.23
2016-10-03T12:51:08.806Z,1017.24